LDSP/SPU METAR and TAF weather

Enter ICAO airport designator
Station Type Date Time Source
LDSP METAR 2020/11/25 21:30 UTC NOAA

LDSP 252130Z AUTO VRB01KT CAVOK 07/02 Q1023


Station Type Date Time Source
LDSP Decoded METAR 2020/11/25 21:30 UTC NOAA

Split / Resnik, Croatia (LDSP) 43-32N 016-18E 21M
Nov 25, 2020 - 04:30 PM EST / 2020.11.25 2130 UTC
Wind: Variable at 1 MPH (1 KT):0
Visibility: greater than 7 mile(s):0
Temperature: 44 F (7 C)
Dew Point: 35 F (2 C)
Relative Humidity: 70%
Pressure (altimeter): 30.21 in. Hg (1023 hPa)
ob: LDSP 252130Z AUTO VRB01KT CAVOK 07/02 Q1023
cycle: 21

Station Type Date Time Source
LDSP TAF 2020/11/25 18:27 UTC NOAA

TAF LDSP 251725Z 2518/2618 VRB02KT CAVOK TX16/2612Z TN05/2605Z

Example: see airport list